Time;durP1;ratioP1;P1;durP2;ratioP2;P2;SDS_P1;SDS_P2;PMS_P1;PMS_P2;Temp;Humidity;BMP_temperature;BMP_pressure;BME280_temperature;BME280_humidity;BME280_pressure;Samples;Min_cycle;Max_cycle;Signal;HPM_P1;HPM_P2
2022/04/30 00:01:24;;;;;;;11.02;4.30;;;12.90;57.10;;;;;;5051332;28;20045;-80
2022/04/30 00:03:50;;;;;;;6.97;4.72;;;12.90;57.30;;;;;;5060498;28;20068;-79
2022/04/30 00:06:15;;;;;;;19.13;5.40;;;12.90;57.20;;;;;;5036054;28;20022;-79
2022/04/30 00:08:41;;;;;;;9.43;5.00;;;12.90;57.20;;;;;;5047218;28;20737;-79
2022/04/30 00:11:07;;;;;;;7.97;4.47;;;12.90;57.30;;;;;;5051051;28;20026;-79
2022/04/30 00:13:33;;;;;;;15.35;5.90;;;12.80;57.40;;;;;;5050907;28;20415;-79
2022/04/30 00:15:59;;;;;;;7.40;4.32;;;12.80;57.60;;;;;;5035833;28;20253;-79
2022/04/30 00:18:25;;;;;;;11.60;5.10;;;12.80;57.60;;;;;;5034561;28;20122;-79
2022/04/30 00:20:50;;;;;;;9.70;4.60;;;12.80;57.50;;;;;;5034301;28;20061;-79
2022/04/30 00:23:19;;;;;;;10.70;5.32;;;12.80;57.50;;;;;;5035590;28;20033;-79
2022/04/30 00:25:49;;;;;;;9.85;5.35;;;12.80;57.50;;;;;;5034005;28;20022;-79
2022/04/30 00:28:16;;;;;;;;;;;12.70;57.50;;;;;;5035886;28;20030;-79
2022/04/30 00:30:44;;;;;;;8.13;4.72;;;12.80;57.50;;;;;;5035549;28;20494;-79
2022/04/30 00:33:10;;;;;;;10.60;4.53;;;12.70;57.80;;;;;;5035464;28;20025;-79
2022/04/30 00:35:37;;;;;;;13.10;5.28;;;12.60;57.90;;;;;;5035433;28;20431;-79
2022/04/30 00:38:02;;;;;;;9.52;5.07;;;12.50;57.80;;;;;;5035592;28;20025;-79
2022/04/30 00:40:28;;;;;;;10.63;5.75;;;12.50;58.10;;;;;;5033883;28;20038;-79
2022/04/30 00:42:55;;;;;;;8.80;4.63;;;12.40;58.50;;;;;;5035165;28;20030;-79
2022/04/30 00:45:21;;;;;;;12.52;4.75;;;12.30;58.60;;;;;;5035145;28;20029;-79
2022/04/30 00:47:46;;;;;;;9.10;4.80;;;12.30;58.60;;;;;;5035159;28;20033;-79
2022/04/30 00:50:16;;;;;;;12.93;5.20;;;12.30;58.70;;;;;;5034071;28;20029;-79
2022/04/30 00:52:43;;;;;;;6.95;4.93;;;12.30;58.70;;;;;;5058871;28;20036;-79
2022/04/30 00:55:11;;;;;;;6.68;4.63;;;12.20;58.90;;;;;;5047143;28;20175;-79
2022/04/30 00:57:37;;;;;;;8.70;5.22;;;12.20;59.20;;;;;;5033923;28;20041;-79
2022/04/30 01:00:04;;;;;;;8.05;4.72;;;12.10;59.40;;;;;;5033953;28;20026;-79
2022/04/30 01:02:32;;;;;;;11.05;5.45;;;12.10;59.40;;;;;;5034770;28;20073;-79
2022/04/30 01:04:59;;;;;;;10.43;5.20;;;12.00;59.70;;;;;;5033565;28;20029;-79
2022/04/30 01:07:27;;;;;;;8.48;4.75;;;12.00;59.60;;;;;;5033550;28;20080;-79
2022/04/30 01:09:53;;;;;;;10.80;5.10;;;12.00;59.70;;;;;;5037980;28;20458;-79
2022/04/30 01:12:20;;;;;;;11.73;5.35;;;11.90;59.70;;;;;;5037733;28;20029;-79
2022/04/30 01:14:47;;;;;;;8.55;4.85;;;11.90;60.00;;;;;;5037703;28;20029;-79
2022/04/30 01:17:13;;;;;;;12.00;5.82;;;11.90;60.20;;;;;;5039065;28;20021;-79
2022/04/30 01:19:42;;;;;;;9.75;5.55;;;11.90;60.00;;;;;;5039421;28;20052;-79
2022/04/30 01:22:20;;;;;;;10.23;5.45;;;11.80;60.20;;;;;;5037710;28;20018;-79
2022/04/30 01:24:49;;;;;;;10.77;5.10;;;11.80;60.60;;;;;;5036811;28;20029;-79
2022/04/30 01:27:16;;;;;;;10.02;4.72;;;11.70;61.10;;;;;;5054198;28;20065;-79
2022/04/30 01:29:42;;;;;;;8.90;5.75;;;11.60;61.40;;;;;;5038675;28;20029;-79
2022/04/30 01:37:36;;;;;;;13.75;6.20;;;11.60;61.20;;;;;;5058853;28;20036;-79
2022/04/30 01:40:08;;;;;;;11.50;5.68;;;11.60;61.20;;;;;;5052778;28;20033;-79
2022/04/30 01:42:46;;;;;;;12.32;5.25;;;11.40;61.40;;;;;;5038424;28;20067;-79
2022/04/30 01:45:14;;;;;;;10.40;6.28;;;11.30;61.90;;;;;;5038698;28;20044;-79
2022/04/30 01:47:44;;;;;;;9.80;5.88;;;11.30;62.10;;;;;;5056206;28;20029;-79
2022/04/30 01:50:10;;;;;;;9.65;5.13;;;11.20;62.40;;;;;;5058474;28;20024;-79
2022/04/30 01:52:36;;;;;;;9.50;5.15;;;11.20;62.40;;;;;;5065611;28;20149;-79
2022/04/30 01:55:03;;;;;;;13.60;5.45;;;11.10;62.70;;;;;;5039125;28;20044;-79
2022/04/30 01:57:29;;;;;;;10.20;5.82;;;11.20;62.90;;;;;;5038262;28;20091;-79
2022/04/30 01:59:57;;;;;;;8.93;5.60;;;11.20;62.60;;;;;;5037334;28;20033;-79
2022/04/30 02:02:26;;;;;;;11.20;5.63;;;11.20;62.70;;;;;;5056817;28;20061;-79
2022/04/30 02:04:54;;;;;;;11.90;6.10;;;11.20;62.60;;;;;;5047418;28;20029;-78
2022/04/30 02:07:21;;;;;;;14.18;6.28;;;11.20;62.60;;;;;;5038077;28;20471;-79
2022/04/30 02:09:51;;;;;;;10.65;6.68;;;11.20;62.50;;;;;;5038070;28;20017;-79
2022/04/30 02:12:17;;;;;;;10.80;5.25;;;11.10;62.70;;;;;;5054101;28;20025;-79
2022/04/30 02:14:48;;;;;;;12.88;5.75;;;11.00;62.90;;;;;;5056748;28;20048;-79
2022/04/30 02:17:16;;;;;;;12.20;6.47;;;11.00;63.20;;;;;;5057545;28;20029;-78
2022/04/30 02:22:30;;;;;;;18.65;6.63;;;11.00;63.40;;;;;;5037598;28;20033;-79
2022/04/30 02:24:57;;;;;;;9.15;5.57;;;11.00;63.40;;;;;;5036658;28;20116;-79
2022/04/30 02:27:28;;;;;;;9.32;5.70;;;10.90;63.50;;;;;;5037872;28;20061;-79
2022/04/30 02:29:54;;;;;;;10.90;5.38;;;10.90;63.50;;;;;;5037755;28;20028;-79
2022/04/30 02:32:19;;;;;;;10.52;6.10;;;10.90;63.60;;;;;;5036276;28;20471;-79
2022/04/30 02:34:45;;;;;;;11.77;5.35;;;10.80;63.60;;;;;;5037639;28;20017;-78
2022/04/30 02:37:14;;;;;;;10.80;6.07;;;10.90;63.40;;;;;;5053159;28;20025;-79
2022/04/30 02:39:43;;;;;;;11.07;6.35;;;10.80;63.50;;;;;;5057625;28;20086;-79
2022/04/30 02:42:11;;;;;;;11.88;6.38;;;10.80;63.90;;;;;;5040524;28;20403;-79
2022/04/30 02:44:38;;;;;;;17.42;6.45;;;10.70;64.20;;;;;;5052747;28;20030;-78
2022/04/30 02:47:07;;;;;;;13.93;6.35;;;10.70;64.20;;;;;;5037681;28;20105;-79
2022/04/30 02:49:33;;;;;;;12.13;6.18;;;10.60;64.50;;;;;;5035906;28;20121;-79
2022/04/30 02:51:59;;;;;;;15.55;6.03;;;10.70;64.30;;;;;;5055000;28;20083;-79
2022/04/30 02:54:24;;;;;;;12.95;5.45;;;10.60;64.40;;;;;;5035952;28;20088;-79
2022/04/30 02:56:50;;;;;;;11.52;6.22;;;10.60;64.40;;;;;;5037096;28;20111;-79
2022/04/30 03:02:02;;;;;;;12.55;5.65;;;10.50;64.50;;;;;;5037271;28;20115;-79
2022/04/30 03:04:28;;;;;;;11.88;5.95;;;10.60;64.60;;;;;;5037162;28;20029;-79
2022/04/30 03:06:54;;;;;;;14.60;6.88;;;10.50;64.80;;;;;;5037050;28;20028;-79
2022/04/30 03:09:20;;;;;;;11.35;6.25;;;10.50;64.90;;;;;;5036143;28;20026;-79
2022/04/30 03:11:46;;;;;;;12.18;6.13;;;10.40;64.90;;;;;;5035301;28;20029;-79
2022/04/30 03:14:13;;;;;;;10.70;5.13;;;10.50;64.80;;;;;;5035520;28;20495;-79
2022/04/30 03:22:07;;;;;;;10.15;5.70;;;10.30;65.20;;;;;;5056693;28;20040;-79
2022/04/30 03:24:33;;;;;;;15.18;6.35;;;10.30;65.20;;;;;;5037318;28;20033;-79
2022/04/30 03:26:58;;;;;;;19.88;6.57;;;10.30;65.40;;;;;;5036771;28;20031;-79
2022/04/30 03:29:24;;;;;;;11.35;5.72;;;10.20;65.30;;;;;;5036190;28;20022;-79
2022/04/30 03:31:50;;;;;;;11.77;5.70;;;10.20;65.40;;;;;;5036021;28;20036;-79
2022/04/30 03:34:15;;;;;;;18.02;5.13;;;10.20;65.50;;;;;;5035805;28;20021;-79
2022/04/30 03:36:43;;;;;;;13.23;6.13;;;10.10;65.70;;;;;;5036519;28;20029;-79
2022/04/30 03:39:09;;;;;;;9.90;5.13;;;10.10;65.90;;;;;;5035059;28;20029;-78
2022/04/30 03:41:35;;;;;;;11.02;5.82;;;10.00;66.10;;;;;;5036387;28;20030;-78
2022/04/30 03:44:01;;;;;;;11.82;6.00;;;10.00;66.30;;;;;;5052029;28;20040;-79
2022/04/30 03:46:27;;;;;;;12.35;5.93;;;9.90;66.30;;;;;;5055103;28;20090;-79
2022/04/30 03:48:56;;;;;;;14.63;6.70;;;9.90;66.30;;;;;;5037764;28;20022;-79
2022/04/30 03:51:23;;;;;;;11.88;5.93;;;9.90;66.30;;;;;;5043693;28;20063;-79
2022/04/30 03:53:49;;;;;;;16.45;6.75;;;9.80;66.40;;;;;;5059739;28;20037;-79
2022/04/30 03:56:17;;;;;;;14.35;5.63;;;9.80;66.50;;;;;;5054795;28;20037;-79
2022/04/30 03:58:48;;;;;;;13.70;6.32;;;9.80;66.40;;;;;;5055836;28;20032;-77
2022/04/30 04:01:15;;;;;;;16.38;6.28;;;9.80;66.50;;;;;;5056295;28;20029;-79
2022/04/30 04:03:42;;;;;;;11.52;5.82;;;9.80;66.70;;;;;;5050304;28;20044;-79
2022/04/30 04:06:08;;;;;;;16.80;6.47;;;9.70;67.00;;;;;;5035853;28;20029;-79
2022/04/30 04:08:37;;;;;;;16.58;6.68;;;9.70;67.00;;;;;;5035980;28;20097;-79
2022/04/30 04:11:03;;;;;;;13.63;5.75;;;9.70;66.90;;;;;;5048594;28;20029;-79
2022/04/30 04:18:57;;;;;;;11.43;6.50;;;9.80;66.60;;;;;;5035885;28;20032;-79
2022/04/30 04:21:27;;;;;;;10.75;6.35;;;9.70;66.60;;;;;;5045549;28;20037;-78
2022/04/30 04:26:37;;;;;;;16.92;6.57;;;9.70;66.60;;;;;;5035926;28;20048;-79
2022/04/30 04:29:03;;;;;;;10.48;5.80;;;9.60;66.60;;;;;;5067620;28;20033;-79
2022/04/30 04:31:28;;;;;;;12.77;6.45;;;9.60;67.00;;;;;;5035489;28;20032;-79
2022/04/30 04:33:54;;;;;;;14.65;6.78;;;9.60;66.90;;;;;;5035619;28;20030;-79
2022/04/30 04:36:20;;;;;;;11.57;6.10;;;9.60;67.00;;;;;;5035403;28;20622;-79
2022/04/30 04:38:48;;;;;;;13.48;6.50;;;9.50;67.20;;;;;;5035350;28;20040;-79
2022/04/30 04:41:14;;;;;;;10.65;5.38;;;9.40;67.50;;;;;;5033670;28;20029;-79
2022/04/30 04:43:39;;;;;;;15.48;5.97;;;9.50;67.40;;;;;;5034871;28;20025;-79
2022/04/30 04:46:06;;;;;;;12.02;6.43;;;9.30;67.80;;;;;;5041155;28;20380;-79
2022/04/30 04:48:32;;;;;;;14.07;6.53;;;9.30;67.80;;;;;;5033970;28;20109;-79
2022/04/30 04:50:58;;;;;;;9.13;5.50;;;9.40;67.60;;;;;;5051160;28;20040;-79
2022/04/30 04:53:24;;;;;;;11.75;6.53;;;9.40;67.70;;;;;;5052913;28;20049;-79
2022/04/30 04:55:53;;;;;;;11.88;6.18;;;9.40;67.50;;;;;;5054035;28;20056;-78
2022/04/30 04:58:19;;;;;;;12.82;6.75;;;9.40;67.60;;;;;;5054630;28;20363;-79
2022/04/30 05:00:46;;;;;;;14.82;6.10;;;9.40;67.70;;;;;;5054016;28;20090;-79
2022/04/30 05:03:13;;;;;;;17.38;6.28;;;9.40;67.50;;;;;;5046352;28;20029;-79
2022/04/30 05:05:38;;;;;;;10.30;6.18;;;9.50;67.70;;;;;;5043623;28;20112;-79
2022/04/30 05:08:04;;;;;;;14.63;6.95;;;9.50;67.40;;;;;;5048242;28;20056;-79
2022/04/30 05:10:30;;;;;;;10.98;5.32;;;9.40;67.50;;;;;;5050457;28;20036;-79
2022/04/30 05:12:56;;;;;;;12.18;5.80;;;9.50;67.80;;;;;;5052845;28;20051;-79
2022/04/30 05:15:22;;;;;;;13.13;6.30;;;9.50;67.70;;;;;;5041607;28;20783;-79
2022/04/30 05:17:47;;;;;;;11.45;5.28;;;9.40;68.00;;;;;;5033898;28;20086;-78
2022/04/30 05:20:13;;;;;;;12.30;6.78;;;9.40;68.10;;;;;;5040658;28;20031;-79
2022/04/30 05:22:39;;;;;;;15.73;5.82;;;9.50;68.10;;;;;;5039556;28;20025;-78
2022/04/30 05:25:05;;;;;;;10.70;6.78;;;9.50;68.10;;;;;;5050541;28;20043;-75
2022/04/30 05:27:30;;;;;;;15.52;6.88;;;9.60;68.10;;;;;;5053668;28;20621;-76
2022/04/30 05:29:56;;;;;;;14.65;5.78;;;9.60;67.60;;;;;;5048263;28;20131;-76
2022/04/30 05:32:22;;;;;;;11.32;5.38;;;9.60;67.90;;;;;;5034328;28;20021;-76
2022/04/30 05:34:47;;;;;;;13.52;5.63;;;9.60;67.90;;;;;;5033607;28;20492;-75
2022/04/30 05:37:13;;;;;;;13.85;6.22;;;9.60;68.20;;;;;;5034286;28;20112;-75
2022/04/30 05:39:39;;;;;;;12.57;5.63;;;9.60;68.30;;;;;;5051393;28;20027;-75
2022/04/30 05:42:05;;;;;;;10.93;5.68;;;9.60;68.10;;;;;;5053209;28;20021;-74
2022/04/30 05:44:30;;;;;;;13.32;5.85;;;9.60;68.30;;;;;;5053014;28;20037;-75
2022/04/30 05:46:56;;;;;;;11.93;6.20;;;9.70;68.00;;;;;;5054473;28;20079;-75
2022/04/30 05:49:22;;;;;;;13.95;5.20;;;9.70;67.90;;;;;;5054110;28;20013;-75
2022/04/30 05:51:49;;;;;;;11.40;5.95;;;9.80;68.00;;;;;;5055064;28;20049;-77
2022/04/30 05:54:16;;;;;;;15.50;5.95;;;9.80;68.20;;;;;;5073078;28;20028;-76
2022/04/30 05:56:42;;;;;;;13.02;5.80;;;9.70;68.30;;;;;;5065366;28;20025;-80
2022/04/30 05:59:08;;;;;;;11.93;5.80;;;9.80;68.20;;;;;;5045448;28;20044;-76
2022/04/30 06:01:34;;;;;;;16.60;7.28;;;9.80;68.30;;;;;;5042788;28;20028;-73
2022/04/30 06:04:00;;;;;;;13.73;6.32;;;9.70;68.70;;;;;;5054482;28;20029;-80
2022/04/30 06:06:26;;;;;;;9.43;5.13;;;9.80;69.00;;;;;;5055835;28;20021;-80
2022/04/30 06:08:52;;;;;;;14.27;6.28;;;9.90;68.60;;;;;;5057535;28;20043;-85
2022/04/30 06:11:18;;;;;;;11.85;5.88;;;9.90;68.80;;;;;;5049859;28;20026;-82
2022/04/30 06:13:43;;;;;;;12.68;6.15;;;10.00;68.90;;;;;;5037603;28;20029;-81
2022/04/30 06:16:09;;;;;;;10.35;5.55;;;10.10;68.80;;;;;;5037953;28;20079;-83
2022/04/30 06:18:35;;;;;;;11.48;5.82;;;10.10;69.00;;;;;;5037724;28;20037;-82
2022/04/30 06:21:01;;;;;;;11.27;6.15;;;10.10;68.80;;;;;;5040029;28;20029;-82
2022/04/30 06:23:27;;;;;;;16.67;6.40;;;10.20;69.10;;;;;;5043101;28;20071;-83
2022/04/30 06:25:52;;;;;;;12.70;5.90;;;10.20;69.30;;;;;;5036020;28;20025;-83
2022/04/30 06:28:19;;;;;;;10.85;5.50;;;10.10;69.90;;;;;;5044646;28;20551;-84
2022/04/30 06:30:45;;;;;;;15.23;6.38;;;10.00;70.40;;;;;;5044116;28;20033;-79
2022/04/30 06:33:11;;;;;;;13.30;6.07;;;10.00;70.50;;;;;;5042652;28;20039;-85
2022/04/30 06:35:37;;;;;;;13.00;5.88;;;10.20;70.30;;;;;;5041832;28;20021;-85
2022/04/30 06:38:04;;;;;;;9.55;5.95;;;10.20;70.00;;;;;;5036996;28;20032;-85
2022/04/30 06:40:31;;;;;;;10.85;6.00;;;10.10;70.70;;;;;;5054757;28;20035;-85
2022/04/30 06:42:57;;;;;;;12.63;5.53;;;10.00;71.60;;;;;;5053757;28;20035;-85
2022/04/30 06:45:23;;;;;;;14.05;6.22;;;9.90;72.00;;;;;;5048806;28;20029;-85
2022/04/30 06:47:48;;;;;;;13.48;5.60;;;9.90;72.00;;;;;;5050643;28;20029;-84
2022/04/30 06:50:14;;;;;;;14.82;5.72;;;10.10;71.80;;;;;;5050800;28;20021;-85
2022/04/30 06:57:07;;;;;;;14.02;6.38;;;10.30;71.40;;;;;;5049684;28;20048;-85
2022/04/30 06:58:10;;;;;;;9.93;5.70;;;10.60;70.20;;;;;;5056455;28;20143;-85
2022/04/30 07:03:23;;;;;;;10.98;5.10;;;10.70;69.80;;;;;;5036495;28;20044;-85
2022/04/30 07:05:52;;;;;;;10.73;6.03;;;10.80;69.20;;;;;;5036456;28;20021;-85
2022/04/30 07:08:18;;;;;;;14.32;6.50;;;10.90;68.60;;;;;;5045767;28;20064;-85
2022/04/30 07:10:44;;;;;;;12.57;6.30;;;11.00;68.40;;;;;;5054929;28;20490;-85
2022/04/30 07:13:09;;;;;;;14.85;6.45;;;11.20;68.00;;;;;;5035558;28;20434;-85
2022/04/30 07:15:35;;;;;;;13.45;5.32;;;11.50;67.10;;;;;;5036523;28;20407;-85
2022/04/30 07:18:01;;;;;;;10.50;5.65;;;11.90;66.10;;;;;;5036715;28;20052;-85
2022/04/30 07:20:26;;;;;;;8.95;5.60;;;13.00;62.60;;;;;;5045618;28;20174;-86
2022/04/30 07:22:52;;;;;;;11.93;5.75;;;14.80;57.90;;;;;;5056760;28;20238;-86
2022/04/30 07:25:18;;;;;;;10.35;5.68;;;15.70;53.40;;;;;;5056655;28;20021;-86
2022/04/30 07:27:44;;;;;;;8.77;5.47;;;15.50;54.10;;;;;;5044800;28;20041;-86
2022/04/30 07:30:09;;;;;;;12.52;5.82;;;15.00;54.30;;;;;;5036373;28;20570;-86
2022/04/30 07:32:38;;;;;;;13.50;5.90;;;15.00;54.80;;;;;;5036436;28;20029;-86
2022/04/30 07:35:04;;;;;;;11.13;6.10;;;15.20;53.70;;;;;;5034892;28;20048;-87
2022/04/30 07:37:30;;;;;;;11.40;6.38;;;15.90;52.20;;;;;;5036107;28;20040;-86
2022/04/30 07:39:55;;;;;;;12.55;6.45;;;17.20;49.90;;;;;;5055485;28;20025;-87
2022/04/30 07:42:21;;;;;;;11.15;5.75;;;18.90;45.20;;;;;;5055084;28;20029;-87
2022/04/30 07:44:47;;;;;;;8.38;5.70;;;20.60;42.50;;;;;;5047521;28;20555;-87
2022/04/30 07:47:12;;;;;;;14.07;7.22;;;22.40;38.90;;;;;;5036231;28;20511;-88
2022/04/30 07:49:38;;;;;;;8.95;6.20;;;22.80;36.90;;;;;;5034759;28;20096;-86
2022/04/30 07:52:04;;;;;;;10.05;6.53;;;24.20;34.90;;;;;;5047591;28;20041;-86
2022/04/30 07:54:30;;;;;;;15.50;7.70;;;25.20;31.80;;;;;;5034630;28;20479;-86
2022/04/30 07:56:56;;;;;;;9.75;6.72;;;25.80;31.50;;;;;;5036031;28;20393;-86
2022/04/30 07:59:23;;;;;;;10.85;7.70;;;25.80;31.20;;;;;;5034449;28;20026;-86
2022/04/30 08:01:50;;;;;;;10.48;7.25;;;25.40;31.30;;;;;;5035892;28;20021;-88
2022/04/30 08:04:16;;;;;;;14.07;7.50;;;24.50;32.40;;;;;;5051763;28;20029;-88
2022/04/30 08:06:41;;;;;;;10.90;7.78;;;24.00;33.40;;;;;;5055800;28;20020;-88
2022/04/30 08:09:07;;;;;;;11.23;7.60;;;25.30;32.00;;;;;;5054628;28;20046;-88
2022/04/30 08:11:35;;;;;;;10.90;8.00;;;25.90;31.20;;;;;;5046970;28;20488;-88
2022/04/30 08:14:01;;;;;;;12.68;8.98;;;25.90;30.60;;;;;;5052912;28;20025;-88
2022/04/30 08:16:28;;;;;;;15.65;7.72;;;23.80;32.60;;;;;;5055548;28;20530;-88
2022/04/30 08:18:58;;;;;;;13.68;8.32;;;25.30;31.70;;;;;;5041007;28;20091;-87
2022/04/30 08:21:24;;;;;;;15.75;8.63;;;26.70;30.10;;;;;;5034301;28;20030;-86
2022/04/30 08:23:50;;;;;;;13.07;8.18;;;26.60;29.10;;;;;;5034119;28;20096;-87
2022/04/30 08:26:16;;;;;;;12.90;8.02;;;28.00;28.30;;;;;;5034128;28;20026;-87
2022/04/30 08:28:42;;;;;;;14.65;9.57;;;27.00;29.50;;;;;;5034382;28;20064;-87
2022/04/30 08:31:08;;;;;;;11.15;8.88;;;25.50;30.30;;;;;;5034149;28;20048;-86
2022/04/30 08:33:33;;;;;;;14.48;11.00;;;26.30;30.30;;;;;;5035582;28;20032;-86
2022/04/30 08:35:59;;;;;;;15.35;10.85;;;25.70;30.30;;;;;;5055368;28;20036;-86
2022/04/30 08:38:25;;;;;;;18.10;12.18;;;23.90;31.10;;;;;;5053806;28;20502;-87
2022/04/30 08:40:51;;;;;;;17.33;12.35;;;22.30;33.80;;;;;;5055170;28;20083;-87
2022/04/30 08:43:19;;;;;;;16.65;11.32;;;21.10;35.60;;;;;;5036318;28;20128;-87
2022/04/30 08:45:45;;;;;;;22.48;11.80;;;20.00;38.20;;;;;;5035267;28;20029;-87
2022/04/30 08:48:13;;;;;;;19.98;11.35;;;19.70;39.00;;;;;;5035103;28;20023;-87
2022/04/30 08:50:41;;;;;;;16.08;11.00;;;20.80;37.30;;;;;;5034927;28;20033;-87
2022/04/30 08:53:08;;;;;;;18.20;10.60;;;22.00;36.70;;;;;;5071671;28;20082;-88
2022/04/30 08:55:33;;;;;;;17.60;11.25;;;23.80;34.00;;;;;;5057147;28;20039;-86
2022/04/30 08:58:00;;;;;;;16.65;11.50;;;24.80;32.80;;;;;;5045705;28;20037;-85
2022/04/30 09:00:26;;;;;;;17.88;11.55;;;23.50;32.40;;;;;;5033793;28;20029;-87
2022/04/30 09:02:53;;;;;;;18.30;11.13;;;22.90;34.30;;;;;;5033851;28;20029;-87
2022/04/30 09:05:19;;;;;;;15.90;10.63;;;21.90;35.70;;;;;;5042175;28;20029;-88
2022/04/30 09:07:59;;;;;;;16.20;9.00;;;21.40;37.20;;;;;;5055102;28;20503;-87
2022/04/30 09:10:29;;;;;;;15.05;10.10;;;20.80;37.10;;;;;;5054598;28;20056;-88
2022/04/30 09:13:15;;;;;;;19.83;10.00;;;20.20;38.80;;;;;;5034773;28;20032;-87
2022/04/30 09:15:46;;;;;;;18.67;10.48;;;19.70;39.70;;;;;;5033790;28;20090;-86
2022/04/30 09:18:14;;;;;;;18.15;10.65;;;19.30;40.30;;;;;;5033620;28;20060;-85
2022/04/30 09:20:47;;;;;;;17.95;10.38;;;19.00;41.20;;;;;;5037018;28;20040;-80
2022/04/30 09:23:33;;;;;;;20.85;10.45;;;19.00;41.70;;;;;;5053691;28;20029;-81
2022/04/30 09:26:03;;;;;;;18.83;10.63;;;19.00;41.70;;;;;;5053193;28;20017;-77
2022/04/30 09:28:30;;;;;;;;;;;19.20;42.30;;;;;;5053590;28;20060;-81
2022/04/30 09:31:14;;;;;;;22.58;10.90;;;18.90;41.80;;;;;;5051130;28;19963;-79
2022/04/30 09:33:48;;;;;;;21.60;11.40;;;19.00;41.50;;;;;;5038581;28;20060;-81
2022/04/30 09:38:59;;;;;;;18.05;11.00;;;18.90;42.00;;;;;;5057762;28;20108;-81
2022/04/30 09:41:26;;;;;;;22.02;11.02;;;18.80;41.80;;;;;;5057945;28;20025;-78
2022/04/30 09:44:04;;;;;;;18.42;11.02;;;18.90;42.40;;;;;;5040311;28;20414;-83
2022/04/30 09:46:30;;;;;;;21.83;11.57;;;18.90;42.40;;;;;;5036633;28;20518;-83
2022/04/30 09:54:27;;;;;;;22.27;12.98;;;20.10;41.20;;;;;;5061461;28;20028;-84
2022/04/30 09:56:53;;;;;;;21.30;12.57;;;20.30;39.20;;;;;;5038180;28;20029;-84
2022/04/30 09:59:22;;;;;;;18.50;12.88;;;20.00;39.00;;;;;;5036435;28;20032;-83
2022/04/30 10:01:48;;;;;;;19.85;12.82;;;19.60;39.70;;;;;;5036096;28;20037;-83
2022/04/30 10:04:16;;;;;;;23.63;13.63;;;19.50;40.20;;;;;;5038132;28;20025;-83
2022/04/30 10:06:48;;;;;;;22.48;13.98;;;19.30;41.10;;;;;;5037927;28;20159;-83
2022/04/30 10:09:21;;;;;;;25.05;13.38;;;19.20;41.60;;;;;;5036631;28;20391;-83
2022/04/30 10:11:56;;;;;;;21.88;13.20;;;19.00;41.90;;;;;;5036395;28;20030;-83
2022/04/30 10:15:02;;;;;;;20.95;12.45;;;18.80;42.10;;;;;;5037741;28;20514;-83
2022/04/30 10:17:33;;;;;;;22.25;13.25;;;18.50;41.70;;;;;;5036293;28;20230;-83
2022/04/30 10:20:05;;;;;;;21.95;12.95;;;18.40;42.70;;;;;;5036637;28;20515;-83
2022/04/30 10:22:31;;;;;;;26.67;14.65;;;18.60;42.40;;;;;;5035739;28;20044;-83
2022/04/30 10:24:59;;;;;;;24.73;13.18;;;18.70;42.10;;;;;;5037618;28;20026;-83
2022/04/30 10:27:37;;;;;;;23.40;14.05;;;18.50;42.50;;;;;;5035764;28;20761;-83
2022/04/30 10:30:05;;;;;;;24.83;15.23;;;18.60;42.30;;;;;;5044032;28;20028;-80
2022/04/30 10:32:35;;;;;;;20.98;12.32;;;18.60;42.50;;;;;;5044191;28;20025;-83
2022/04/30 10:35:03;;;;;;;23.60;13.27;;;18.60;42.80;;;;;;5047814;28;20060;-81
2022/04/30 10:37:37;;;;;;;24.90;14.20;;;18.60;42.40;;;;;;5044245;28;20033;-76
2022/04/30 10:40:07;;;;;;;23.88;13.20;;;18.60;43.10;;;;;;5044081;28;20025;-83
2022/04/30 10:42:43;;;;;;;21.45;13.27;;;18.80;42.90;;;;;;5044911;28;20021;-83
2022/04/30 10:45:15;;;;;;;20.88;12.65;;;18.80;42.30;;;;;;5045534;28;20432;-82
2022/04/30 10:47:51;;;;;;;22.15;12.60;;;18.90;42.20;;;;;;5047675;28;20124;-83
2022/04/30 10:50:17;;;;;;;23.38;14.30;;;18.90;42.00;;;;;;5037841;28;20107;-82
2022/04/30 10:52:47;;;;;;;24.73;15.48;;;18.70;41.30;;;;;;5047998;28;20048;-82
2022/04/30 10:55:13;;;;;;;30.17;18.65;;;18.90;41.90;;;;;;5043888;28;20042;-82
2022/04/30 10:57:43;;;;;;;22.60;14.68;;;19.30;42.10;;;;;;5047401;28;20025;-82
2022/04/30 11:00:09;;;;;;;22.23;13.90;;;19.60;41.70;;;;;;5045584;28;20490;-83
2022/04/30 11:02:35;;;;;;;18.88;12.20;;;19.80;41.50;;;;;;5043816;28;20083;-86
2022/04/30 11:05:01;;;;;;;24.00;12.75;;;19.80;41.80;;;;;;5046581;28;20025;-83
2022/04/30 11:07:28;;;;;;;22.58;12.13;;;20.00;40.90;;;;;;5047516;28;20009;-77
2022/04/30 11:09:55;;;;;;;26.40;16.30;;;20.00;40.80;;;;;;5032452;28;20037;-80
2022/04/30 11:12:20;;;;;;;27.25;16.88;;;20.40;41.00;;;;;;5046795;28;20032;-77
2022/04/30 11:14:46;;;;;;;29.35;14.25;;;20.60;40.00;;;;;;5041155;28;20112;-79
2022/04/30 11:17:12;;;;;;;20.67;11.63;;;20.60;40.10;;;;;;5048918;28;20087;-78
2022/04/30 11:19:42;;;;;;;21.48;12.25;;;20.50;41.00;;;;;;5059543;28;20108;-77
2022/04/30 11:22:09;;;;;;;20.02;12.93;;;20.30;40.70;;;;;;5056084;28;20079;-78
2022/04/30 11:24:37;;;;;;;20.60;12.15;;;20.10;40.40;;;;;;5053644;28;20037;-77
2022/04/30 11:27:05;;;;;;;20.15;10.95;;;20.10;41.10;;;;;;5057137;28;20067;-78
2022/04/30 11:29:32;;;;;;;20.00;12.30;;;20.20;40.60;;;;;;5054739;28;20464;-77
2022/04/30 11:31:59;;;;;;;21.70;12.27;;;20.00;40.70;;;;;;5049721;28;20128;-77
2022/04/30 11:34:25;;;;;;;16.67;10.65;;;20.00;40.60;;;;;;5036293;28;20050;-77
2022/04/30 11:36:54;;;;;;;19.95;12.45;;;20.30;39.70;;;;;;5036990;28;20025;-77
2022/04/30 11:39:21;;;;;;;21.35;12.02;;;20.30;40.80;;;;;;5037686;28;20044;-78
2022/04/30 11:41:49;;;;;;;19.42;12.52;;;20.30;41.10;;;;;;5055430;28;20041;-77
2022/04/30 11:44:16;;;;;;;20.55;12.32;;;20.30;41.20;;;;;;5039931;28;20041;-77
2022/04/30 11:46:45;;;;;;;24.10;12.05;;;20.00;41.20;;;;;;5036445;28;20079;-79
2022/04/30 11:49:14;;;;;;;20.08;10.52;;;19.90;42.30;;;;;;5036335;28;20789;-77
2022/04/30 11:51:41;;;;;;;17.27;10.48;;;20.10;42.50;;;;;;5046726;28;20035;-81
2022/04/30 11:54:12;;;;;;;21.40;12.40;;;20.00;41.60;;;;;;5073830;28;20024;-77
2022/04/30 11:56:39;;;;;;;17.50;10.68;;;20.30;41.60;;;;;;5054939;28;20617;-81
2022/04/30 11:59:05;;;;;;;19.80;12.43;;;20.60;41.70;;;;;;5039899;28;20029;-77
2022/04/30 12:01:35;;;;;;;23.13;11.82;;;20.50;40.70;;;;;;5037538;28;20025;-78
2022/04/30 12:04:08;;;;;;;18.48;10.65;;;20.30;41.80;;;;;;5038506;28;20056;-79
2022/04/30 12:06:36;;;;;;;19.40;11.50;;;20.50;42.30;;;;;;5035353;28;20032;-79
2022/04/30 12:09:12;;;;;;;25.10;12.52;;;20.30;41.80;;;;;;5047395;28;20472;-80
2022/04/30 12:11:42;;;;;;;20.20;11.57;;;20.30;41.90;;;;;;5036212;28;20024;-80
2022/04/30 12:14:09;;;;;;;19.10;12.27;;;20.40;41.60;;;;;;5037657;28;20475;-79
2022/04/30 12:16:41;;;;;;;21.77;12.23;;;20.50;42.00;;;;;;5036637;28;20036;-79
2022/04/30 12:24:40;;;;;;;20.75;11.05;;;20.40;42.00;;;;;;5039569;28;20094;-79
2022/04/30 12:25:33;;;;;;;18.13;12.07;;;20.30;42.40;;;;;;5041831;28;20491;-78
2022/04/30 12:28:02;;;;;;;20.33;12.45;;;20.30;41.60;;;;;;5038488;28;20111;-79
2022/04/30 12:30:28;;;;;;;18.33;10.90;;;20.10;41.20;;;;;;5038082;28;20017;-79
2022/04/30 12:33:00;;;;;;;21.35;12.10;;;19.80;40.70;;;;;;5048270;28;20022;-80
2022/04/30 12:35:31;;;;;;;21.13;12.73;;;19.80;43.40;;;;;;5036766;28;20025;-81
2022/04/30 12:38:06;;;;;;;19.13;11.40;;;20.00;42.40;;;;;;5042757;28;20036;-80
2022/04/30 12:40:36;;;;;;;21.17;11.95;;;20.20;42.00;;;;;;5043743;28;20052;-80
2022/04/30 12:43:03;;;;;;;23.10;12.48;;;20.40;42.20;;;;;;5043930;28;20041;-81
2022/04/30 12:45:29;;;;;;;20.25;11.70;;;20.50;41.50;;;;;;5043615;28;20013;-80
2022/04/30 12:47:54;;;;;;;23.02;12.80;;;20.50;40.70;;;;;;5041818;28;20026;-80
2022/04/30 12:50:20;;;;;;;19.77;11.60;;;20.40;41.50;;;;;;5044465;28;20021;-79
2022/04/30 12:52:46;;;;;;;18.60;11.95;;;20.50;41.10;;;;;;5045702;28;20073;-78
2022/04/30 12:55:13;;;;;;;18.92;10.85;;;20.70;41.10;;;;;;5041605;28;20061;-79
2022/04/30 12:57:39;;;;;;;21.00;12.05;;;20.90;42.40;;;;;;5047346;28;20432;-79
2022/04/30 13:00:07;;;;;;;17.15;11.43;;;20.70;42.50;;;;;;5041017;28;20096;-80
2022/04/30 13:02:32;;;;;;;22.83;12.77;;;20.70;42.20;;;;;;5041202;28;20052;-80
2022/04/30 13:04:58;;;;;;;20.88;12.75;;;20.70;42.10;;;;;;5040332;28;20191;-81
2022/04/30 13:07:27;;;;;;;20.55;11.93;;;20.60;41.80;;;;;;5043886;28;20032;-79
2022/04/30 13:15:21;;;;;;;19.77;11.52;;;20.50;42.40;;;;;;5043276;28;20083;-80
2022/04/30 13:17:47;;;;;;;18.02;12.40;;;20.60;43.30;;;;;;5042141;28;20029;-81
2022/04/30 13:20:12;;;;;;;18.42;11.38;;;20.40;41.00;;;;;;5040591;28;20041;-79
2022/04/30 13:22:38;;;;;;;20.60;11.88;;;20.40;42.30;;;;;;5042024;28;20029;-79
2022/04/30 13:25:04;;;;;;;20.55;12.05;;;20.50;41.70;;;;;;5047459;28;20035;-79